Terminal Aerodrome Forecast
Issued by NWS Charleston, WV

Current Version | Previous Version | Graphics & Text | Print | Product List | Glossary On
Versions: 1 2 3 4 5 6 7 8 9 10 11 12 13 14 15 16 17 18 19 20 21 22
000
FTUS41 KRLX 280500
TAFHTS
TAF
KHTS 280527Z 2806/2906 VRB03KT P6SM BKN040 OVC100
     FM280800 23004KT 6SM -SHRA BKN025 OVC035
     FM281000 VRB03KT 5SM -SHRA BR SCT006 OVC012
     FM281200 VRB03KT 2SM -SHRA BR OVC008
     FM281800 VRB03KT 3SM -RA BR OVC015=

USA.gov is the U.S. government's official web portal to all federal, state and local government web resources and services.